Time;durP1;ratioP1;P1;durP2;ratioP2;P2;SDS_P1;SDS_P2;PMS_P1;PMS_P2;Temp;Humidity;BMP_temperature;BMP_pressure;BME280_temperature;BME280_humidity;BME280_pressure;Samples;Min_cycle;Max_cycle;Signal;HPM_P1;HPM_P2
2023/10/08 00:01:21;;;;;;;1.92;0.40;;;;;;;;;;4997530;28;20050;-68
2023/10/08 00:03:50;;;;;;;0.77;0.35;;;;;;;;;;4979496;28;20053;-69
2023/10/08 00:06:19;;;;;;;0.77;0.28;;;;;;;;;;4996010;28;20077;-67
2023/10/08 00:08:46;;;;;;;1.83;0.40;;;;;;;;;;4995518;28;20050;-69
2023/10/08 00:11:15;;;;;;;1.48;0.30;;;;;;;;;;4991546;28;20061;-67
2023/10/08 00:13:44;;;;;;;3.80;0.50;;;;;;;;;;4977968;28;20157;-68
2023/10/08 00:16:15;;;;;;;0.50;0.30;;;;;;;;;;4994646;28;20054;-67
2023/10/08 00:18:48;;;;;;;5.43;0.40;;;;;;;;;;4996583;28;20438;-67
2023/10/08 00:21:19;;;;;;;0.85;0.22;;;;;;;;;;5004012;28;20089;-68
2023/10/08 00:23:52;;;;;;;2.35;0.30;;;;;;;;;;4995104;28;20053;-67
2023/10/08 00:26:27;;;;;;;0.43;0.17;;;;;;;;;;4997740;28;20078;-67
2023/10/08 00:28:57;;;;;;;4.15;0.30;;;;;;;;;;4980308;28;20109;-68
2023/10/08 00:31:30;;;;;;;3.42;0.60;;;;;;;;;;4995813;28;20050;-68
2023/10/08 00:33:57;;;;;;;2.60;0.30;;;;;;;;;;5001225;28;20541;-67
2023/10/08 00:36:25;;;;;;;3.00;0.25;;;;;;;;;;4995727;28;20042;-67
2023/10/08 00:38:54;;;;;;;1.95;0.30;;;;;;;;;;4994072;28;20061;-67
2023/10/08 00:41:22;;;;;;;1.45;0.20;;;;;;;;;;4992680;28;20555;-67
2023/10/08 00:43:50;;;;;;;2.10;0.20;;;;;;;;;;4993264;28;20082;-67
2023/10/08 00:46:22;;;;;;;1.80;0.30;;;;;;;;;;4978176;28;20057;-67
2023/10/08 00:48:53;;;;;;;3.03;0.20;;;;;;;;;;4977242;28;20082;-67
2023/10/08 00:51:31;;;;;;;0.60;0.20;;;;;;;;;;4993708;28;20073;-67
2023/10/08 00:54:05;;;;;;;4.85;0.45;;;;;;;;;;4996941;28;20082;-70
2023/10/08 00:56:49;;;;;;;2.60;0.30;;;;;;;;;;5004921;28;20042;-68
2023/10/08 00:59:20;;;;;;;0.52;0.30;;;;;;;;;;4998462;28;20050;-68
2023/10/08 01:01:52;;;;;;;1.73;0.30;;;;;;;;;;4996498;28;20059;-68
2023/10/08 01:04:22;;;;;;;2.22;0.30;;;;;;;;;;4993634;28;20051;-68
2023/10/08 01:06:54;;;;;;;2.15;0.60;;;;;;;;;;4993185;28;20054;-68
2023/10/08 01:09:22;;;;;;;1.23;0.32;;;;;;;;;;4992109;28;20043;-68
2023/10/08 01:12:06;;;;;;;1.40;0.20;;;;;;;;;;4993485;28;20113;-67
2023/10/08 01:14:34;;;;;;;2.53;0.75;;;;;;;;;;4995148;28;20458;-67
2023/10/08 01:17:05;;;;;;;1.42;0.40;;;;;;;;;;4973985;28;20046;-68
2023/10/08 01:19:38;;;;;;;3.90;0.40;;;;;;;;;;4994552;28;20540;-68
2023/10/08 01:22:08;;;;;;;1.73;0.32;;;;;;;;;;4990397;28;20132;-68
2023/10/08 01:24:36;;;;;;;4.15;0.40;;;;;;;;;;4999570;28;20125;-67
2023/10/08 01:27:09;;;;;;;1.42;0.40;;;;;;;;;;4981327;28;20408;-68
2023/10/08 01:29:36;;;;;;;4.60;0.40;;;;;;;;;;4975778;28;20100;-68
2023/10/08 01:32:05;;;;;;;1.25;0.30;;;;;;;;;;4994093;28;20046;-67
2023/10/08 01:34:35;;;;;;;4.85;0.40;;;;;;;;;;4995606;28;20039;-67
2023/10/08 01:37:08;;;;;;;2.75;0.50;;;;;;;;;;4990102;28;20054;-69
2023/10/08 01:39:37;;;;;;;3.85;0.40;;;;;;;;;;4981675;28;20066;-67
2023/10/08 01:42:07;;;;;;;1.85;0.63;;;;;;;;;;4996411;28;20088;-67
2023/10/08 01:44:35;;;;;;;1.27;0.35;;;;;;;;;;4996348;28;20053;-68
2023/10/08 01:47:04;;;;;;;5.22;0.43;;;;;;;;;;4991016;28;20394;-68
2023/10/08 01:49:33;;;;;;;1.02;0.40;;;;;;;;;;4993837;28;20050;-67
2023/10/08 01:52:07;;;;;;;1.35;0.40;;;;;;;;;;4992307;28;20050;-68
2023/10/08 01:54:37;;;;;;;1.00;0.38;;;;;;;;;;4995530;28;20153;-68
2023/10/08 01:57:08;;;;;;;0.22;0.20;;;;;;;;;;4991724;28;20050;-67
2023/10/08 01:59:36;;;;;;;4.57;0.52;;;;;;;;;;4993307;28;20134;-70
2023/10/08 02:02:05;;;;;;;0.88;0.40;;;;;;;;;;4979509;28;20705;-68
2023/10/08 02:04:35;;;;;;;8.13;0.50;;;;;;;;;;4977372;28;20042;-69
2023/10/08 02:07:03;;;;;;;5.35;0.52;;;;;;;;;;4975483;28;20412;-68
2023/10/08 02:09:33;;;;;;;0.60;0.30;;;;;;;;;;4989550;28;20473;-67
2023/10/08 02:12:00;;;;;;;0.82;0.40;;;;;;;;;;4976560;28;20100;-67
2023/10/08 02:14:31;;;;;;;5.38;0.50;;;;;;;;;;4989379;28;20054;-68
2023/10/08 02:17:01;;;;;;;1.15;0.50;;;;;;;;;;4974500;28;20082;-67
2023/10/08 02:19:28;;;;;;;2.80;0.40;;;;;;;;;;4977092;28;20520;-68
2023/10/08 02:21:56;;;;;;;2.75;0.40;;;;;;;;;;4977967;28;20054;-67
2023/10/08 02:24:24;;;;;;;7.25;0.40;;;;;;;;;;4995006;28;20053;-67
2023/10/08 02:26:52;;;;;;;3.13;0.50;;;;;;;;;;4993261;28;20096;-67
2023/10/08 02:29:20;;;;;;;2.60;0.40;;;;;;;;;;4994130;28;20484;-70
2023/10/08 02:31:48;;;;;;;4.22;0.50;;;;;;;;;;4974005;28;20054;-67
2023/10/08 02:34:16;;;;;;;3.60;0.60;;;;;;;;;;4976451;28;20896;-67
2023/10/08 02:36:43;;;;;;;1.88;0.40;;;;;;;;;;4990769;28;20101;-68
2023/10/08 02:39:20;;;;;;;4.82;0.60;;;;;;;;;;4991102;28;20548;-67
2023/10/08 02:41:48;;;;;;;4.32;0.63;;;;;;;;;;4989333;28;20082;-67
2023/10/08 02:44:16;;;;;;;3.42;0.80;;;;;;;;;;4992962;28;20149;-68
2023/10/08 02:46:44;;;;;;;2.58;0.55;;;;;;;;;;4998872;28;20532;-68
2023/10/08 02:49:16;;;;;;;5.85;0.80;;;;;;;;;;4993262;28;20050;-68
2023/10/08 02:51:44;;;;;;;3.05;0.70;;;;;;;;;;4980744;28;20088;-70
2023/10/08 02:54:17;;;;;;;2.58;0.45;;;;;;;;;;4976353;28;20045;-68
2023/10/08 02:56:45;;;;;;;2.35;0.52;;;;;;;;;;4989668;28;20101;-69
2023/10/08 02:59:13;;;;;;;4.43;0.60;;;;;;;;;;4992340;28;20054;-68
2023/10/08 03:01:41;;;;;;;3.42;0.77;;;;;;;;;;4970148;28;20660;-67
2023/10/08 03:04:17;;;;;;;1.58;0.70;;;;;;;;;;4990581;28;20051;-67
2023/10/08 03:06:50;;;;;;;1.80;0.63;;;;;;;;;;4990643;28;20073;-68
2023/10/08 03:09:20;;;;;;;0.88;0.50;;;;;;;;;;5000340;28;20041;-67
2023/10/08 03:11:48;;;;;;;4.53;0.60;;;;;;;;;;4989538;28;20058;-68
2023/10/08 03:14:21;;;;;;;2.35;0.63;;;;;;;;;;4981372;28;20043;-67
2023/10/08 03:16:49;;;;;;;2.30;0.52;;;;;;;;;;4974277;28;20237;-68
2023/10/08 03:19:18;;;;;;;4.00;0.50;;;;;;;;;;4994143;28;20058;-67
2023/10/08 03:21:51;;;;;;;1.98;0.50;;;;;;;;;;4992875;28;20094;-67
2023/10/08 03:24:37;;;;;;;2.28;0.60;;;;;;;;;;4976696;28;20181;-68
2023/10/08 03:27:12;;;;;;;3.45;0.60;;;;;;;;;;4993148;28;20537;-67
2023/10/08 03:29:41;;;;;;;4.18;0.90;;;;;;;;;;4993189;28;20054;-69
2023/10/08 03:32:13;;;;;;;2.40;0.50;;;;;;;;;;4993656;28;20054;-68
2023/10/08 03:34:43;;;;;;;2.58;0.73;;;;;;;;;;4991977;28;20046;-68
2023/10/08 03:37:15;;;;;;;2.63;0.90;;;;;;;;;;4976021;28;20101;-67
2023/10/08 03:39:51;;;;;;;2.67;0.75;;;;;;;;;;4986766;28;20046;-68
2023/10/08 03:42:23;;;;;;;7.35;1.10;;;;;;;;;;4971922;28;20054;-67
2023/10/08 03:44:52;;;;;;;1.60;0.63;;;;;;;;;;4999950;28;20057;-68
2023/10/08 03:47:22;;;;;;;3.70;0.70;;;;;;;;;;5005564;28;20056;-68
2023/10/08 03:49:50;;;;;;;3.35;0.60;;;;;;;;;;4997118;28;20129;-68
2023/10/08 03:52:23;;;;;;;6.63;0.88;;;;;;;;;;4995825;28;20045;-67
2023/10/08 03:55:04;;;;;;;2.00;0.63;;;;;;;;;;4984175;28;20547;-67
2023/10/08 03:57:42;;;;;;;3.45;0.77;;;;;;;;;;4997655;28;20297;-67
2023/10/08 04:00:13;;;;;;;3.45;1.00;;;;;;;;;;4977854;28;20136;-68
2023/10/08 04:02:41;;;;;;;4.20;0.75;;;;;;;;;;4994203;28;20386;-67
2023/10/08 04:05:19;;;;;;;3.38;0.80;;;;;;;;;;5000300;28;20047;-68
2023/10/08 04:08:16;;;;;;;5.43;0.98;;;;;;;;;;4995359;28;20078;-68
2023/10/08 04:13:31;;;;;;;7.53;0.95;;;;;;;;;;4999426;28;20057;-67
2023/10/08 04:15:58;;;;;;;5.43;1.10;;;;;;;;;;4992946;28;20549;-68
2023/10/08 04:18:26;;;;;;;5.18;0.90;;;;;;;;;;4977132;28;20445;-67
2023/10/08 04:21:12;;;;;;;4.10;0.90;;;;;;;;;;4978282;28;20073;-67
2023/10/08 04:23:44;;;;;;;7.35;1.15;;;;;;;;;;4996401;28;20054;-68
2023/10/08 04:26:12;;;;;;;4.50;1.10;;;;;;;;;;4996721;28;20050;-67
2023/10/08 04:28:41;;;;;;;3.20;1.00;;;;;;;;;;4991981;28;20116;-67
2023/10/08 04:31:15;;;;;;;5.43;0.90;;;;;;;;;;4979426;28;20146;-67
2023/10/08 04:33:47;;;;;;;4.18;1.00;;;;;;;;;;4980613;28;20465;-68
2023/10/08 04:36:18;;;;;;;3.95;1.17;;;;;;;;;;4978111;28;20130;-67
2023/10/08 04:38:47;;;;;;;3.53;0.85;;;;;;;;;;4998924;28;20061;-67
2023/10/08 04:41:18;;;;;;;3.25;0.90;;;;;;;;;;4998397;28;20113;-67
2023/10/08 04:43:49;;;;;;;4.88;0.93;;;;;;;;;;4994557;28;20054;-68
2023/10/08 04:46:33;;;;;;;8.23;0.90;;;;;;;;;;4977432;28;20054;-68
2023/10/08 04:49:05;;;;;;;3.90;0.98;;;;;;;;;;4994418;28;20147;-69
2023/10/08 04:51:38;;;;;;;5.07;1.00;;;;;;;;;;4980284;28;20080;-67
2023/10/08 04:54:09;;;;;;;2.10;0.85;;;;;;;;;;4993051;28;20057;-67
2023/10/08 04:56:38;;;;;;;8.15;1.38;;;;;;;;;;5001834;28;20061;-68
2023/10/08 04:59:06;;;;;;;5.03;1.08;;;;;;;;;;4992797;28;20050;-68
2023/10/08 05:01:47;;;;;;;4.80;1.00;;;;;;;;;;4997626;28;20050;-67
2023/10/08 05:04:32;;;;;;;8.00;1.15;;;;;;;;;;4998189;28;20042;-68
2023/10/08 05:07:17;;;;;;;7.95;0.90;;;;;;;;;;4977932;28;20062;-68
2023/10/08 05:09:52;;;;;;;9.20;0.95;;;;;;;;;;4993759;28;20046;-68
2023/10/08 05:15:33;;;;;;;6.60;0.73;;;;;;;;;;4972325;28;20413;-70
2023/10/08 05:18:12;;;;;;;6.40;0.88;;;;;;;;;;4994033;28;20050;-70
2023/10/08 05:21:02;;;;;;;7.25;1.02;;;;;;;;;;4995993;28;20489;-67
2023/10/08 05:26:30;;;;;;;6.25;0.80;;;;;;;;;;4984965;28;20104;-67
2023/10/08 05:29:01;;;;;;;3.92;0.90;;;;;;;;;;4990743;28;20505;-67
2023/10/08 05:31:46;;;;;;;9.75;1.00;;;;;;;;;;4972210;28;20039;-67
2023/10/08 05:34:22;;;;;;;5.55;0.73;;;;;;;;;;4981237;28;20111;-69
2023/10/08 05:39:46;;;;;;;5.60;0.70;;;;;;;;;;4989295;28;20065;-67
2023/10/08 05:42:16;;;;;;;4.60;0.80;;;;;;;;;;4995676;28;20428;-69
2023/10/08 05:44:46;;;;;;;2.22;0.65;;;;;;;;;;4992464;28;20149;-68
2023/10/08 05:47:38;;;;;;;3.80;0.88;;;;;;;;;;4990409;28;20050;-67
2023/10/08 05:50:38;;;;;;;2.80;0.65;;;;;;;;;;4989431;28;20559;-67
2023/10/08 05:53:19;;;;;;;4.53;0.63;;;;;;;;;;4976567;28;20054;-70
2023/10/08 05:56:00;;;;;;;5.88;0.82;;;;;;;;;;4993093;28;20137;-67
2023/10/08 05:58:45;;;;;;;6.82;0.80;;;;;;;;;;4991784;28;20046;-67
2023/10/08 06:01:26;;;;;;;7.50;0.68;;;;;;;;;;4970235;28;20502;-67
2023/10/08 06:04:11;;;;;;;4.07;0.60;;;;;;;;;;4992953;28;20103;-68
2023/10/08 06:06:47;;;;;;;4.13;0.60;;;;;;;;;;4991553;28;20054;-67
2023/10/08 06:12:09;;;;;;;5.72;0.70;;;;;;;;;;4986824;28;20086;-67
2023/10/08 06:15:06;;;;;;;2.78;0.77;;;;;;;;;;4991673;28;20053;-67
2023/10/08 06:20:25;;;;;;;4.30;0.70;;;;;;;;;;4993421;28;20050;-67
2023/10/08 06:22:54;;;;;;;3.15;1.20;;;;;;;;;;4995310;28;20506;-68
2023/10/08 06:25:24;;;;;;;4.28;0.73;;;;;;;;;;4989783;28;20564;-68
2023/10/08 06:27:55;;;;;;;4.47;0.57;;;;;;;;;;4988420;28;20053;-67
2023/10/08 06:30:24;;;;;;;9.93;0.70;;;;;;;;;;4974534;28;20101;-67
2023/10/08 06:32:53;;;;;;;7.47;0.88;;;;;;;;;;4997568;28;20492;-66
2023/10/08 06:35:25;;;;;;;3.60;0.60;;;;;;;;;;4993430;28;20145;-67
2023/10/08 06:37:55;;;;;;;5.05;0.80;;;;;;;;;;4990177;28;20050;-68
2023/10/08 06:40:42;;;;;;;2.90;0.85;;;;;;;;;;4991570;28;20056;-67
2023/10/08 06:43:16;;;;;;;4.38;0.77;;;;;;;;;;4992913;28;20702;-68
2023/10/08 06:45:46;;;;;;;8.00;0.93;;;;;;;;;;4990064;28;20081;-68
2023/10/08 06:48:20;;;;;;;4.38;0.80;;;;;;;;;;4988812;28;20054;-69
2023/10/08 06:50:47;;;;;;;7.15;0.70;;;;;;;;;;4990089;28;20495;-68
2023/10/08 06:53:14;;;;;;;8.20;0.98;;;;;;;;;;4990348;28;20043;-67
2023/10/08 06:55:42;;;;;;;7.78;0.80;;;;;;;;;;4996264;28;20046;-68
2023/10/08 06:58:11;;;;;;;10.75;1.30;;;;;;;;;;4970614;28;20426;-68
2023/10/08 07:00:39;;;;;;;4.57;0.77;;;;;;;;;;4990631;28;20093;-67
2023/10/08 07:03:10;;;;;;;6.53;0.88;;;;;;;;;;4991461;28;20046;-68
2023/10/08 07:05:40;;;;;;;5.05;0.90;;;;;;;;;;4993743;28;20049;-67
2023/10/08 07:08:08;;;;;;;9.05;1.00;;;;;;;;;;4994504;28;20116;-67
2023/10/08 07:10:35;;;;;;;4.22;0.77;;;;;;;;;;4991445;28;20050;-67
2023/10/08 07:13:03;;;;;;;2.20;0.63;;;;;;;;;;4991674;28;20077;-67
2023/10/08 07:15:32;;;;;;;4.38;0.80;;;;;;;;;;4966747;28;20103;-68
2023/10/08 07:18:08;;;;;;;3.03;0.80;;;;;;;;;;4992712;28;20057;-66
2023/10/08 07:20:39;;;;;;;6.78;0.93;;;;;;;;;;4979926;28;20065;-67
2023/10/08 07:23:18;;;;;;;6.57;0.90;;;;;;;;;;4992376;28;20057;-68
2023/10/08 07:25:51;;;;;;;9.75;1.15;;;;;;;;;;4990040;28;20050;-67
2023/10/08 07:28:19;;;;;;;6.45;0.95;;;;;;;;;;4996512;28;20054;-69
2023/10/08 07:30:49;;;;;;;3.22;0.50;;;;;;;;;;4991424;28;20046;-67
2023/10/08 07:33:19;;;;;;;8.00;0.80;;;;;;;;;;4990599;28;21082;-68
2023/10/08 07:36:11;;;;;;;3.45;0.60;;;;;;;;;;4993550;28;20050;-67
2023/10/08 07:38:39;;;;;;;4.40;1.00;;;;;;;;;;4991148;28;20417;-68
2023/10/08 07:41:06;;;;;;;5.28;0.77;;;;;;;;;;4996323;28;20477;-69
2023/10/08 07:43:34;;;;;;;6.07;0.80;;;;;;;;;;4995410;28;20054;-67
2023/10/08 07:46:01;;;;;;;6.50;1.88;;;;;;;;;;4973080;28;20047;-68
2023/10/08 07:48:29;;;;;;;3.60;0.60;;;;;;;;;;4999089;28;20512;-68
2023/10/08 07:50:58;;;;;;;7.90;0.90;;;;;;;;;;4991401;28;20049;-68
2023/10/08 07:53:37;;;;;;;4.85;0.60;;;;;;;;;;4971533;28;20050;-67
2023/10/08 07:56:06;;;;;;;3.28;0.82;;;;;;;;;;4992540;28;20401;-68
2023/10/08 07:58:34;;;;;;;6.53;0.80;;;;;;;;;;4993936;28;20046;-69
2023/10/08 08:01:06;;;;;;;3.05;0.60;;;;;;;;;;4976613;28;20058;-67
2023/10/08 08:03:36;;;;;;;3.03;0.88;;;;;;;;;;4990751;28;20046;-68
2023/10/08 08:06:05;;;;;;;3.50;0.82;;;;;;;;;;4990559;28;20110;-69
2023/10/08 08:08:33;;;;;;;3.42;0.70;;;;;;;;;;4996714;28;20053;-67
2023/10/08 08:11:05;;;;;;;4.68;0.80;;;;;;;;;;4995054;28;20092;-69
2023/10/08 08:13:33;;;;;;;4.68;0.90;;;;;;;;;;4993163;28;20042;-67
2023/10/08 08:16:09;;;;;;;5.68;0.90;;;;;;;;;;4974482;28;20054;-68
2023/10/08 08:18:37;;;;;;;9.07;0.65;;;;;;;;;;4991951;28;20524;-67
2023/10/08 08:21:14;;;;;;;5.65;1.08;;;;;;;;;;4990858;28;20058;-67
2023/10/08 08:23:42;;;;;;;1.75;0.52;;;;;;;;;;4992364;28;20050;-68
2023/10/08 08:26:26;;;;;;;3.70;0.60;;;;;;;;;;4974431;28;20048;-67
2023/10/08 08:28:54;;;;;;;2.78;0.70;;;;;;;;;;4972521;28;20049;-68
2023/10/08 08:31:22;;;;;;;2.53;0.60;;;;;;;;;;4999283;28;20058;-68
2023/10/08 08:34:02;;;;;;;5.68;0.80;;;;;;;;;;4992986;28;20058;-68
2023/10/08 08:36:31;;;;;;;5.72;0.82;;;;;;;;;;4994845;28;20397;-66
2023/10/08 08:38:59;;;;;;;4.68;0.88;;;;;;;;;;4994755;28;20050;-68
2023/10/08 08:41:27;;;;;;;8.40;1.48;;;;;;;;;;4977045;28;20065;-66
2023/10/08 08:43:58;;;;;;;4.90;1.00;;;;;;;;;;4982537;28;20069;-68
2023/10/08 08:46:30;;;;;;;9.23;0.90;;;;;;;;;;4999157;28;20497;-67
2023/10/08 08:48:57;;;;;;;5.82;0.82;;;;;;;;;;4979629;28;20051;-68
2023/10/08 08:51:25;;;;;;;4.55;0.60;;;;;;;;;;5000899;28;20042;-67
2023/10/08 08:53:53;;;;;;;6.57;0.90;;;;;;;;;;4976608;28;20046;-68
2023/10/08 08:56:22;;;;;;;2.10;0.73;;;;;;;;;;4970152;28;20084;-68
2023/10/08 08:58:50;;;;;;;5.10;0.70;;;;;;;;;;4990287;28;20517;-68
2023/10/08 09:01:18;;;;;;;2.15;0.88;;;;;;;;;;4977947;28;20056;-70
2023/10/08 09:03:47;;;;;;;10.70;0.77;;;;;;;;;;4994828;28;20042;-67
2023/10/08 09:06:15;;;;;;;3.65;0.65;;;;;;;;;;4994869;28;20050;-68
2023/10/08 09:08:45;;;;;;;6.55;0.98;;;;;;;;;;4996274;28;20046;-68
2023/10/08 09:11:16;;;;;;;2.35;0.57;;;;;;;;;;4990623;28;20405;-68
2023/10/08 09:13:44;;;;;;;8.88;1.05;;;;;;;;;;4975776;28;20061;-68
2023/10/08 09:16:13;;;;;;;6.88;0.93;;;;;;;;;;4999605;28;21084;-67
2023/10/08 09:18:42;;;;;;;7.18;0.75;;;;;;;;;;4994623;28;20049;-67
2023/10/08 09:21:11;;;;;;;5.88;0.82;;;;;;;;;;4981915;28;20505;-68
2023/10/08 09:23:44;;;;;;;4.35;0.52;;;;;;;;;;4998871;28;20057;-68
2023/10/08 09:26:13;;;;;;;5.65;0.60;;;;;;;;;;5002034;28;20135;-68
2023/10/08 09:28:47;;;;;;;5.70;0.90;;;;;;;;;;4995457;28;20584;-68
2023/10/08 09:31:14;;;;;;;3.67;0.98;;;;;;;;;;4991770;28;20058;-69
2023/10/08 09:33:41;;;;;;;8.45;0.90;;;;;;;;;;4978196;28;20426;-67
2023/10/08 09:36:10;;;;;;;5.35;1.15;;;;;;;;;;4998349;28;20144;-69
2023/10/08 09:38:38;;;;;;;6.53;0.85;;;;;;;;;;4994409;28;20042;-68
2023/10/08 09:41:08;;;;;;;4.47;0.80;;;;;;;;;;4996420;28;20386;-68
2023/10/08 09:43:36;;;;;;;6.82;0.95;;;;;;;;;;5000167;28;20466;-67
2023/10/08 09:46:10;;;;;;;6.90;0.80;;;;;;;;;;4996829;28;20051;-67
2023/10/08 09:48:39;;;;;;;3.95;0.93;;;;;;;;;;4998588;28;20486;-68
2023/10/08 09:51:07;;;;;;;7.78;1.33;;;;;;;;;;4992642;28;20113;-67
2023/10/08 09:53:39;;;;;;;5.90;0.90;;;;;;;;;;4993431;28;20050;-67
2023/10/08 09:56:12;;;;;;;5.22;1.42;;;;;;;;;;4992784;28;20474;-68
2023/10/08 09:58:39;;;;;;;3.45;0.82;;;;;;;;;;4992008;28;20050;-68
2023/10/08 10:01:08;;;;;;;5.40;1.10;;;;;;;;;;4995239;28;20050;-70
2023/10/08 10:03:37;;;;;;;11.73;1.23;;;;;;;;;;4994603;28;20069;-68
2023/10/08 10:06:09;;;;;;;4.72;0.80;;;;;;;;;;4973730;28;20548;-69
2023/10/08 10:08:37;;;;;;;2.92;0.80;;;;;;;;;;4997549;28;20069;-67
2023/10/08 10:11:04;;;;;;;5.03;0.90;;;;;;;;;;4977423;28;20054;-68
2023/10/08 10:13:36;;;;;;;5.18;0.90;;;;;;;;;;4995008;28;20452;-67
2023/10/08 10:16:03;;;;;;;4.60;0.93;;;;;;;;;;4976690;28;20054;-67
2023/10/08 10:18:31;;;;;;;10.40;1.08;;;;;;;;;;4996760;28;20097;-67
2023/10/08 10:21:01;;;;;;;6.20;1.10;;;;;;;;;;4968613;28;20055;-67
2023/10/08 10:23:39;;;;;;;9.18;1.27;;;;;;;;;;4990721;28;20045;-68
2023/10/08 10:26:09;;;;;;;6.93;0.90;;;;;;;;;;4989214;28;20053;-67
2023/10/08 10:28:37;;;;;;;7.10;0.90;;;;;;;;;;4993115;28;20057;-69
2023/10/08 10:31:05;;;;;;;4.97;0.60;;;;;;;;;;4984438;28;20497;-67
2023/10/08 10:33:34;;;;;;;6.28;0.90;;;;;;;;;;4999947;28;20050;-67
2023/10/08 10:36:04;;;;;;;4.35;0.80;;;;;;;;;;4993454;28;20545;-67
2023/10/08 10:38:33;;;;;;;3.15;0.93;;;;;;;;;;4991082;28;20134;-68
2023/10/08 10:41:07;;;;;;;6.80;1.05;;;;;;;;;;4989650;28;20129;-69
2023/10/08 10:43:36;;;;;;;5.18;0.88;;;;;;;;;;4974481;28;20050;-68
2023/10/08 10:46:24;;;;;;;3.83;0.73;;;;;;;;;;4991492;28;20049;-67
2023/10/08 10:49:06;;;;;;;5.65;0.80;;;;;;;;;;4990717;28;20105;-70
2023/10/08 10:51:34;;;;;;;2.78;0.82;;;;;;;;;;4993521;28;20054;-68
2023/10/08 10:54:07;;;;;;;8.40;0.85;;;;;;;;;;4998962;28;20042;-68
2023/10/08 10:56:41;;;;;;;8.10;0.90;;;;;;;;;;4992162;28;20046;-67
2023/10/08 10:59:18;;;;;;;6.93;1.08;;;;;;;;;;4990057;28;20050;-68
2023/10/08 11:01:46;;;;;;;4.47;1.00;;;;;;;;;;4996251;28;20785;-68
2023/10/08 11:04:17;;;;;;;5.88;1.00;;;;;;;;;;4995445;28;20141;-68
2023/10/08 11:06:45;;;;;;;6.07;1.00;;;;;;;;;;4978792;28;20050;-68
2023/10/08 11:09:17;;;;;;;7.05;0.70;;;;;;;;;;4996229;28;20560;-70
2023/10/08 11:11:45;;;;;;;5.72;0.90;;;;;;;;;;5001592;28;20046;-68
2023/10/08 11:14:18;;;;;;;7.65;0.85;;;;;;;;;;4993920;28;20060;-71
2023/10/08 11:16:47;;;;;;;3.85;1.13;;;;;;;;;;4996002;28;20532;-68
2023/10/08 11:19:17;;;;;;;4.47;0.93;;;;;;;;;;4995543;28;20046;-68
2023/10/08 11:21:51;;;;;;;5.45;0.80;;;;;;;;;;4981662;28;20100;-68
2023/10/08 11:24:28;;;;;;;5.18;0.80;;;;;;;;;;4994512;28;20052;-69
2023/10/08 11:27:06;;;;;;;8.88;1.02;;;;;;;;;;4989808;28;20073;-68
2023/10/08 11:29:33;;;;;;;5.05;0.70;;;;;;;;;;4991322;28;20054;-67
2023/10/08 11:32:02;;;;;;;4.38;0.70;;;;;;;;;;4991310;28;20620;-68
2023/10/08 11:34:38;;;;;;;6.35;0.90;;;;;;;;;;4974369;28;20061;-70
2023/10/08 11:37:07;;;;;;;2.72;0.88;;;;;;;;;;4976496;28;20043;-69
2023/10/08 11:39:45;;;;;;;5.68;1.00;;;;;;;;;;4993111;28;20057;-68
2023/10/08 11:42:39;;;;;;;6.57;1.10;;;;;;;;;;4991597;28;20065;-69
2023/10/08 11:45:17;;;;;;;6.70;0.73;;;;;;;;;;4992568;28;20050;-69
2023/10/08 11:47:45;;;;;;;4.88;1.02;;;;;;;;;;4989296;28;20560;-68
2023/10/08 11:50:17;;;;;;;6.63;0.95;;;;;;;;;;4994120;28;20505;-69
2023/10/08 11:52:44;;;;;;;5.32;0.88;;;;;;;;;;4974526;28;20042;-68
2023/10/08 11:55:18;;;;;;;4.00;0.95;;;;;;;;;;4982603;28;20053;-68
2023/10/08 11:57:46;;;;;;;6.72;1.27;;;;;;;;;;4977698;28;20094;-68
2023/10/08 12:00:18;;;;;;;8.38;0.82;;;;;;;;;;4988817;28;20058;-68
2023/10/08 12:02:46;;;;;;;3.88;0.73;;;;;;;;;;4996446;28;20058;-67
2023/10/08 12:05:19;;;;;;;6.05;1.00;;;;;;;;;;4995820;28;20054;-68
2023/10/08 12:07:47;;;;;;;6.53;0.80;;;;;;;;;;4983261;28;20046;-68
2023/10/08 12:10:16;;;;;;;5.85;0.93;;;;;;;;;;4979724;28;20138;-67
2023/10/08 12:12:45;;;;;;;4.53;0.88;;;;;;;;;;5002412;28;20060;-68
2023/10/08 12:15:19;;;;;;;7.50;1.05;;;;;;;;;;4983337;28;20062;-68
2023/10/08 12:17:56;;;;;;;4.80;0.93;;;;;;;;;;5001085;28;20080;-68
2023/10/08 12:20:27;;;;;;;7.68;1.02;;;;;;;;;;4995704;28;20406;-70
2023/10/08 12:22:54;;;;;;;3.35;0.70;;;;;;;;;;4976593;28;20062;-68
2023/10/08 12:25:22;;;;;;;5.47;1.42;;;;;;;;;;4997006;28;20464;-67
2023/10/08 12:27:49;;;;;;;4.30;0.98;;;;;;;;;;4994618;28;20042;-68
2023/10/08 12:30:17;;;;;;;5.45;0.90;;;;;;;;;;4978741;28;20080;-68
2023/10/08 12:32:46;;;;;;;4.50;1.00;;;;;;;;;;4998831;28;20489;-67
2023/10/08 12:35:13;;;;;;;4.38;0.70;;;;;;;;;;4994212;28;20039;-68
2023/10/08 12:37:44;;;;;;;5.15;0.93;;;;;;;;;;4976388;28;20058;-68
2023/10/08 12:40:22;;;;;;;3.60;0.85;;;;;;;;;;5000543;28;20086;-68
2023/10/08 12:42:50;;;;;;;6.40;1.08;;;;;;;;;;4977439;28;20052;-67
2023/10/08 12:45:20;;;;;;;12.32;1.10;;;;;;;;;;4996552;28;20078;-67
2023/10/08 12:47:49;;;;;;;4.05;0.85;;;;;;;;;;4995782;28;20099;-69
2023/10/08 12:50:16;;;;;;;8.00;1.02;;;;;;;;;;4995951;28;20050;-68
2023/10/08 12:52:52;;;;;;;3.13;1.10;;;;;;;;;;4993807;28;20129;-67
2023/10/08 12:55:23;;;;;;;7.43;1.25;;;;;;;;;;4994468;28;20509;-68
2023/10/08 12:57:55;;;;;;;2.92;1.00;;;;;;;;;;4995509;28;20396;-68
2023/10/08 13:00:23;;;;;;;3.80;1.00;;;;;;;;;;4993548;28;20072;-68
2023/10/08 13:02:53;;;;;;;3.42;0.80;;;;;;;;;;4994568;28;20097;-68
2023/10/08 13:05:26;;;;;;;8.73;0.85;;;;;;;;;;4993566;28;20511;-68
2023/10/08 13:07:56;;;;;;;5.47;0.88;;;;;;;;;;4990314;28;20098;-69
2023/10/08 13:10:23;;;;;;;4.07;0.98;;;;;;;;;;4997414;28;20105;-68
2023/10/08 13:12:51;;;;;;;5.72;1.00;;;;;;;;;;4996309;28;20142;-68
2023/10/08 13:15:18;;;;;;;9.40;0.93;;;;;;;;;;4992340;28;20046;-67
2023/10/08 13:17:46;;;;;;;5.80;0.60;;;;;;;;;;4993518;28;20050;-68
2023/10/08 13:20:17;;;;;;;4.93;0.73;;;;;;;;;;4979979;28;20056;-68
2023/10/08 13:22:46;;;;;;;7.30;1.25;;;;;;;;;;4993227;28;20054;-69
2023/10/08 13:25:17;;;;;;;5.53;0.80;;;;;;;;;;4992433;28;20046;-68
2023/10/08 13:27:44;;;;;;;3.22;0.77;;;;;;;;;;4977021;28;20042;-67
2023/10/08 13:30:12;;;;;;;4.20;0.88;;;;;;;;;;4990140;28;20049;-67
2023/10/08 13:32:39;;;;;;;4.55;0.75;;;;;;;;;;4993808;28;20466;-68
2023/10/08 13:35:07;;;;;;;4.20;0.95;;;;;;;;;;4988932;28;20485;-68
2023/10/08 13:37:35;;;;;;;5.13;1.08;;;;;;;;;;4994867;28;20050;-68
2023/10/08 13:40:02;;;;;;;5.55;0.80;;;;;;;;;;4992971;28;20420;-68
2023/10/08 13:42:31;;;;;;;4.10;0.85;;;;;;;;;;4995352;28;20054;-68
2023/10/08 13:44:59;;;;;;;8.35;1.00;;;;;;;;;;4975062;28;20058;-67
2023/10/08 13:47:28;;;;;;;3.95;1.20;;;;;;;;;;5001548;28;20121;-68
2023/10/08 13:49:57;;;;;;;8.05;1.20;;;;;;;;;;5002223;28;20552;-68
2023/10/08 13:52:26;;;;;;;4.93;0.85;;;;;;;;;;4989807;28;20046;-68
2023/10/08 13:54:53;;;;;;;6.20;1.15;;;;;;;;;;4989268;28;20432;-68
2023/10/08 13:57:20;;;;;;;6.55;0.98;;;;;;;;;;4996287;28;20053;-67
2023/10/08 13:59:50;;;;;;;5.60;0.93;;;;;;;;;;4989185;28;20055;-68
2023/10/08 14:02:21;;;;;;;9.30;1.20;;;;;;;;;;4992048;28;20104;-68
2023/10/08 14:04:50;;;;;;;5.32;0.90;;;;;;;;;;4993762;28;20548;-68
2023/10/08 14:07:18;;;;;;;3.72;0.82;;;;;;;;;;4973239;28;20046;-67
2023/10/08 14:09:46;;;;;;;5.60;0.90;;;;;;;;;;4992938;28;20054;-68
2023/10/08 14:12:14;;;;;;;5.30;0.80;;;;;;;;;;4989401;28;20638;-68
2023/10/08 14:14:43;;;;;;;9.45;0.82;;;;;;;;;;4992766;28;20058;-68
2023/10/08 14:17:14;;;;;;;2.67;0.90;;;;;;;;;;4995039;28;20049;-68
2023/10/08 14:19:46;;;;;;;4.43;0.70;;;;;;;;;;4991134;28;20166;-70
2023/10/08 14:22:15;;;;;;;6.03;1.00;;;;;;;;;;4993090;28;20522;-68
2023/10/08 14:24:45;;;;;;;5.28;0.80;;;;;;;;;;4990942;28;20042;-69
2023/10/08 14:27:15;;;;;;;7.97;1.17;;;;;;;;;;4991418;28;20038;-68
2023/10/08 14:29:44;;;;;;;4.35;0.95;;;;;;;;;;4995757;28;20046;-69
2023/10/08 14:32:12;;;;;;;7.60;1.08;;;;;;;;;;4993981;28;20046;-68
2023/10/08 14:42:56;;;;;;;6.95;1.17;;;;;;;;;;4992608;28;20136;-67
2023/10/08 14:45:25;;;;;;;4.20;0.98;;;;;;;;;;4994774;28;20054;-67
2023/10/08 14:47:55;;;;;;;2.92;0.80;;;;;;;;;;4994188;28;20069;-67
2023/10/08 14:50:23;;;;;;;5.50;0.60;;;;;;;;;;4990225;28;20054;-67
2023/10/08 14:52:50;;;;;;;3.60;0.75;;;;;;;;;;4996433;28;20053;-68
2023/10/08 14:55:21;;;;;;;8.02;1.00;;;;;;;;;;4993719;28;20052;-68
2023/10/08 14:57:51;;;;;;;4.05;0.85;;;;;;;;;;4992519;28;20057;-67
2023/10/08 15:00:24;;;;;;;7.05;0.70;;;;;;;;;;4992286;28;20049;-68
2023/10/08 15:02:53;;;;;;;8.40;1.00;;;;;;;;;;4993188;28;20104;-68
2023/10/08 15:05:22;;;;;;;6.03;0.82;;;;;;;;;;4986739;28;20469;-67
2023/10/08 15:07:50;;;;;;;4.70;0.95;;;;;;;;;;4969705;28;20050;-68
2023/10/08 15:10:17;;;;;;;4.28;0.80;;;;;;;;;;4987320;28;20042;-68
2023/10/08 15:12:44;;;;;;;1.73;0.70;;;;;;;;;;4989245;28;20046;-68
2023/10/08 15:15:13;;;;;;;5.50;1.00;;;;;;;;;;4989030;28;20053;-67
2023/10/08 15:17:41;;;;;;;3.78;0.82;;;;;;;;;;4992016;28;20039;-68
2023/10/08 15:20:14;;;;;;;3.30;0.80;;;;;;;;;;4989248;28;20104;-68
2023/10/08 15:22:43;;;;;;;7.67;0.83;;;;;;;;;;4973768;28;20136;-67
2023/10/08 15:25:11;;;;;;;5.25;0.77;;;;;;;;;;5001824;28;20285;-70
2023/10/08 15:27:39;;;;;;;8.68;1.05;;;;;;;;;;5000253;28;20126;-68
2023/10/08 15:30:11;;;;;;;5.22;0.93;;;;;;;;;;4998547;28;20130;-68
2023/10/08 15:32:39;;;;;;;8.90;0.90;;;;;;;;;;4979044;28;20051;-68